createdAt,value
2022-08-11T00:01:32.523Z,63.40
2022-08-11T00:05:49.697Z,63.70
2022-08-11T00:09:59.597Z,64.80
2022-08-11T00:14:11.283Z,66.00
2022-08-11T00:18:20.934Z,65.30
2022-08-11T00:22:31.227Z,67.10
2022-08-11T00:26:39.970Z,68.10
2022-08-11T00:30:49.089Z,67.80
2022-08-11T00:35:56.158Z,67.40
2022-08-11T00:39:12.049Z,68.70
2022-08-11T00:43:57.109Z,69.00
2022-08-11T00:48:27.825Z,69.30
2022-08-11T00:53:14.178Z,68.70
2022-08-11T00:57:48.421Z,69.30
2022-08-11T01:02:20.992Z,69.50
2022-08-11T01:06:49.625Z,70.00
2022-08-11T01:11:15.673Z,70.60
2022-08-11T01:16:01.027Z,71.40
2022-08-11T01:20:47.107Z,72.60
2022-08-11T01:24:47.102Z,72.80
2022-08-11T01:29:27.632Z,73.60
2022-08-11T01:33:57.216Z,75.10
2022-08-11T01:38:42.587Z,76.90
2022-08-11T01:43:18.139Z,78.20
2022-08-11T01:47:54.161Z,78.30
2022-08-11T01:52:13.114Z,79.30
2022-08-11T01:56:52.082Z,80.20
2022-08-11T02:01:22.798Z,80.30
2022-08-11T02:06:10.649Z,81.40
2022-08-11T02:10:50.762Z,82.80
2022-08-11T02:15:17.674Z,83.50
2022-08-11T02:20:05.681Z,83.90
2022-08-11T02:24:17.438Z,86.70
2022-08-11T05:17:42.246Z,99.90
2022-08-11T05:22:16.817Z,99.90
2022-08-11T05:26:49.263Z,99.90
2022-08-11T05:31:19.348Z,99.90
2022-08-11T05:36:01.949Z,99.90
2022-08-11T05:40:10.224Z,99.90
2022-08-11T05:44:39.512Z,99.90
2022-08-11T05:49:08.294Z,99.90
2022-08-11T05:53:43.674Z,99.90
2022-08-11T05:57:51.467Z,99.90
2022-08-11T06:02:01.684Z,99.90
2022-08-11T06:06:11.473Z,99.90
2022-08-11T06:10:35.371Z,99.90
2022-08-11T06:14:46.458Z,99.90
2022-08-11T06:18:56.065Z,99.90
2022-08-11T06:23:07.392Z,99.90
2022-08-11T06:27:21.632Z,99.90
2022-08-11T06:31:31.565Z,99.90
2022-08-11T06:35:51.856Z,99.90
2022-08-11T06:40:06.255Z,99.90
2022-08-11T06:44:17.944Z,99.90
2022-08-11T06:48:26.876Z,99.90
2022-08-11T06:52:38.145Z,99.90
2022-08-11T06:57:28.744Z,99.90
2022-08-11T07:01:19.942Z,99.90
2022-08-11T07:05:43.932Z,99.90
2022-08-11T07:10:38.581Z,99.90
2022-08-11T07:15:11.025Z,99.90
2022-08-11T07:19:40.865Z,99.90
2022-08-11T07:24:21.192Z,99.90
2022-08-11T07:28:51.638Z,99.90
2022-08-11T07:33:03.673Z,99.90
2022-08-11T07:37:33.645Z,99.90
2022-08-11T07:41:43.471Z,99.90
2022-08-11T07:46:10.288Z,99.90
2022-08-11T07:50:37.003Z,99.90
2022-08-11T07:54:48.854Z,99.90
2022-08-11T07:59:14.242Z,99.90
2022-08-11T08:03:54.427Z,99.40
2022-08-11T08:08:30.740Z,97.30
2022-08-11T08:12:59.434Z,94.50
2022-08-11T08:18:10.070Z,93.80
2022-08-11T08:22:11.065Z,92.50
2022-08-11T08:26:13.703Z,89.30
2022-08-11T08:30:40.570Z,85.20
2022-08-11T08:34:52.020Z,85.40
2022-08-11T08:39:00.639Z,84.30
2022-08-11T08:43:12.589Z,81.90
2022-08-11T08:47:41.058Z,77.10
2022-08-11T08:52:00.910Z,76.10
2022-08-11T08:55:47.776Z,82.20
2022-08-11T08:59:57.538Z,76.80
2022-08-11T09:04:12.227Z,71.40
2022-08-11T09:08:22.670Z,72.40
2022-08-11T09:12:36.579Z,77.70
2022-08-11T09:16:44.353Z,69.10
2022-08-11T09:20:53.581Z,68.10
2022-08-11T09:25:21.649Z,66.00
2022-08-11T09:29:32.387Z,64.60
2022-08-11T09:33:43.348Z,65.30
2022-08-11T09:38:11.206Z,68.80
2022-08-11T09:42:23.949Z,63.80
2022-08-11T09:46:35.886Z,57.60
2022-08-11T09:50:46.731Z,59.20
2022-08-11T09:54:56.408Z,60.20
2022-08-11T09:59:07.263Z,59.30
2022-08-11T10:03:22.126Z,58.10
2022-08-11T10:07:52.487Z,57.70
2022-08-11T10:12:02.944Z,55.00
2022-08-11T10:16:15.316Z,55.30
2022-08-11T10:20:25.860Z,51.80
2022-08-11T10:29:13.503Z,51.00
2022-08-11T10:33:46.540Z,49.90
2022-08-11T10:38:06.911Z,51.90
2022-08-11T10:42:30.268Z,46.50
2022-08-11T10:46:49.231Z,46.90
2022-08-11T10:51:14.049Z,48.60
2022-08-11T10:55:42.020Z,45.60
2022-08-11T10:59:51.190Z,48.20
2022-08-11T11:04:02.989Z,44.80
2022-08-11T11:08:32.494Z,45.60
2022-08-11T11:13:04.502Z,48.10
2022-08-11T11:17:15.700Z,46.20
2022-08-11T11:21:26.030Z,46.00
2022-08-11T11:25:48.582Z,46.40
2022-08-11T11:30:11.746Z,46.50
2022-08-11T11:34:52.876Z,41.70
2022-08-11T11:38:55.994Z,43.60
2022-08-11T11:43:05.881Z,45.20
2022-08-11T11:47:15.291Z,43.90
2022-08-11T11:51:25.950Z,44.00
2022-08-11T11:55:35.831Z,41.60
2022-08-11T12:00:02.686Z,41.40
2022-08-11T12:04:14.294Z,42.50
2022-08-11T12:08:27.911Z,40.60
2022-08-11T12:12:54.642Z,38.90
2022-08-11T12:17:04.181Z,39.50
2022-08-11T12:21:15.244Z,37.90
2022-08-11T12:26:25.357Z,41.50
2022-08-11T12:30:13.794Z,40.70
2022-08-11T12:34:24.715Z,42.10
2022-08-11T12:38:35.220Z,41.90
2022-08-11T12:43:04.026Z,38.20
2022-08-11T12:47:17.221Z,39.80
2022-08-11T12:52:11.338Z,40.90
2022-08-11T12:56:18.612Z,38.60
2022-08-11T13:01:05.394Z,39.60
2022-08-11T13:05:18.948Z,38.60
2022-08-11T13:09:27.690Z,38.50
2022-08-11T13:13:54.256Z,37.10
2022-08-11T13:17:48.971Z,38.00
2022-08-11T13:21:58.924Z,35.90
2022-08-11T13:26:08.985Z,36.20
2022-08-11T13:30:40.326Z,37.90
2022-08-11T13:34:48.122Z,36.90
2022-08-11T13:38:59.218Z,37.60
2022-08-11T13:43:09.239Z,37.20
2022-08-11T13:47:18.493Z,37.90
2022-08-11T13:51:33.152Z,37.80
2022-08-11T13:55:52.313Z,36.90
2022-08-11T13:59:57.556Z,37.00
2022-08-11T14:04:31.313Z,37.30
2022-08-11T14:08:42.828Z,37.50
2022-08-11T14:13:24.057Z,37.70
2022-08-11T14:17:39.993Z,37.40
2022-08-11T14:22:07.648Z,35.80
2022-08-11T14:26:24.270Z,36.10
2022-08-11T14:31:01.618Z,33.70
2022-08-11T14:35:09.143Z,35.20
2022-08-11T14:39:20.620Z,35.70
2022-08-11T14:44:13.099Z,36.10
2022-08-11T14:47:53.891Z,35.00
2022-08-11T14:52:08.064Z,35.90
2022-08-11T14:56:34.600Z,36.00
2022-08-11T15:00:47.165Z,38.10
2022-08-11T15:04:56.626Z,35.20
2022-08-11T15:09:08.998Z,36.70
2022-08-11T15:13:20.402Z,36.30
2022-08-11T15:17:41.399Z,35.60
2022-08-11T15:21:58.641Z,35.30
2022-08-11T15:26:12.893Z,36.00
2022-08-11T15:30:40.287Z,36.20
2022-08-11T15:35:09.703Z,36.50
2022-08-11T15:39:24.178Z,36.50
2022-08-11T15:44:14.039Z,36.00
2022-08-11T15:48:35.343Z,35.60
2022-08-11T15:52:56.240Z,35.70
2022-08-11T15:57:06.471Z,35.70
2022-08-11T16:01:34.382Z,37.00
2022-08-11T16:05:45.542Z,38.10
2022-08-11T16:10:18.732Z,36.70
2022-08-11T16:18:59.503Z,36.90
2022-08-11T16:23:10.114Z,36.60
2022-08-11T16:27:23.888Z,36.10
2022-08-11T16:31:32.890Z,36.50
2022-08-11T16:36:01.324Z,36.50
2022-08-11T16:40:11.927Z,36.20
2022-08-11T16:44:40.405Z,36.20
2022-08-11T16:48:53.428Z,36.70
2022-08-11T16:53:02.089Z,36.50
2022-08-11T16:57:38.141Z,37.70
2022-08-11T17:01:53.281Z,37.40
2022-08-11T17:06:21.092Z,37.20
2022-08-11T17:10:55.409Z,36.90
2022-08-11T17:15:03.718Z,37.50
2022-08-11T17:19:14.836Z,37.40
2022-08-11T17:23:41.913Z,37.60
2022-08-11T17:27:53.281Z,38.00
2022-08-11T17:32:55.816Z,37.70
2022-08-11T17:36:52.876Z,37.80
2022-08-11T17:41:23.359Z,37.70
2022-08-11T17:45:51.515Z,37.80
2022-08-11T17:50:16.731Z,37.80
2022-08-11T17:54:32.241Z,37.10
2022-08-11T17:59:00.584Z,36.30
2022-08-11T18:03:27.963Z,36.70
2022-08-11T18:07:56.923Z,37.40
2022-08-11T18:17:02.577Z,37.60
2022-08-11T18:21:27.661Z,38.60
2022-08-11T18:25:57.231Z,39.10
2022-08-11T18:30:24.624Z,39.50
2022-08-11T18:34:54.079Z,39.90
2022-08-11T18:39:23.804Z,40.00
2022-08-11T18:43:53.642Z,40.30
2022-08-11T18:48:30.470Z,39.80
2022-08-11T18:52:56.549Z,40.30
2022-08-11T18:57:25.889Z,40.30
2022-08-11T19:01:55.635Z,41.50
2022-08-11T19:06:39.853Z,41.90
2022-08-11T19:10:53.935Z,42.00
2022-08-11T19:15:22.090Z,42.20
2022-08-11T19:19:50.291Z,42.30
2022-08-11T19:24:19.716Z,42.40
2022-08-11T19:28:47.530Z,43.50
2022-08-11T19:33:14.676Z,44.40
2022-08-11T19:37:44.306Z,45.00
2022-08-11T19:42:12.060Z,45.30
2022-08-11T19:46:41.894Z,45.70
2022-08-11T19:51:09.056Z,46.50
2022-08-11T19:55:56.343Z,47.40
2022-08-11T20:00:30.099Z,47.80
2022-08-11T20:10:05.033Z,48.30
2022-08-11T20:14:13.887Z,48.70
2022-08-11T20:18:40.218Z,48.90
2022-08-11T20:23:08.151Z,48.70
2022-08-11T20:27:35.975Z,49.30
2022-08-11T20:32:08.479Z,50.00
2022-08-11T20:36:54.889Z,49.80
2022-08-11T20:41:23.743Z,50.20
2022-08-11T20:45:55.186Z,50.70
2022-08-11T20:50:21.669Z,51.40
2022-08-11T20:54:49.648Z,51.50
2022-08-11T20:59:21.747Z,51.90
2022-08-11T21:03:54.686Z,52.30
2022-08-11T21:08:18.201Z,53.30
2022-08-11T21:12:58.319Z,53.60
2022-08-11T21:17:28.388Z,53.40
2022-08-11T21:21:56.601Z,54.00
2022-08-11T21:26:30.016Z,53.90
2022-08-11T21:30:58.513Z,53.50
2022-08-11T21:35:26.910Z,54.30
2022-08-11T21:40:17.056Z,54.00
2022-08-11T21:44:44.284Z,53.80
2022-08-11T21:53:45.838Z,54.40
2022-08-11T21:58:14.401Z,54.70
2022-08-11T22:02:42.320Z,54.50
2022-08-11T22:07:11.271Z,54.80
2022-08-11T22:11:38.613Z,55.30
2022-08-11T22:16:15.284Z,55.90
2022-08-11T22:20:42.655Z,56.10
2022-08-11T22:25:16.531Z,56.00
2022-08-11T22:29:50.529Z,56.00
2022-08-11T22:38:40.981Z,56.30
2022-08-11T22:43:07.668Z,56.30
2022-08-11T22:47:40.280Z,56.40
2022-08-11T22:56:39.035Z,57.00
2022-08-11T23:01:06.091Z,57.60
2022-08-11T23:05:34.420Z,58.20
2022-08-11T23:10:01.247Z,58.60
2022-08-11T23:14:48.176Z,59.10
2022-08-11T23:20:09.026Z,59.40
2022-08-11T23:23:47.370Z,59.80
2022-08-11T23:28:16.884Z,60.10
2022-08-11T23:32:45.482Z,62.10
2022-08-11T23:37:13.084Z,62.50
2022-08-11T23:41:40.304Z,63.00
2022-08-11T23:46:07.307Z,62.20
2022-08-11T23:50:34.545Z,61.10
2022-08-11T23:55:04.507Z,61.30
2022-08-11T23:59:32.717Z,62.50
